sensor_id;sensor_type;location;lat;lon;timestamp;P1;durP1;ratioP1;P2;durP2;ratioP2
3259;SDS011;68938;48.150;14.004;2023-04-23T00:00:41;9.40;;;8.50;;
3259;SDS011;68938;48.150;14.004;2023-04-23T00:03:09;9.90;;;8.93;;
3259;SDS011;68938;48.150;14.004;2023-04-23T00:05:40;10.47;;;9.47;;
3259;SDS011;68938;48.150;14.004;2023-04-23T00:08:10;9.93;;;9.03;;
3259;SDS011;68938;48.150;14.004;2023-04-23T00:10:37;10.83;;;9.90;;
3259;SDS011;68938;48.150;14.004;2023-04-23T00:13:05;10.37;;;9.33;;
3259;SDS011;68938;48.150;14.004;2023-04-23T00:15:32;9.47;;;8.67;;
3259;SDS011;68938;48.150;14.004;2023-04-23T00:17:59;10.27;;;9.37;;
3259;SDS011;68938;48.150;14.004;2023-04-23T00:20:26;10.80;;;9.80;;
3259;SDS011;68938;48.150;14.004;2023-04-23T00:22:53;9.87;;;9.00;;
3259;SDS011;68938;48.150;14.004;2023-04-23T00:25:20;9.67;;;8.47;;
3259;SDS011;68938;48.150;14.004;2023-04-23T00:27:47;12.07;;;9.20;;
3259;SDS011;68938;48.150;14.004;2023-04-23T00:30:14;9.10;;;8.20;;
3259;SDS011;68938;48.150;14.004;2023-04-23T00:32:41;10.63;;;9.73;;
3259;SDS011;68938;48.150;14.004;2023-04-23T00:35:08;10.13;;;9.20;;
3259;SDS011;68938;48.150;14.004;2023-04-23T00:37:35;9.37;;;8.60;;
3259;SDS011;68938;48.150;14.004;2023-04-23T00:40:02;10.13;;;9.13;;
3259;SDS011;68938;48.150;14.004;2023-04-23T00:42:30;9.17;;;8.37;;
3259;SDS011;68938;48.150;14.004;2023-04-23T00:44:58;9.83;;;9.03;;
3259;SDS011;68938;48.150;14.004;2023-04-23T00:47:27;9.60;;;8.70;;
3259;SDS011;68938;48.150;14.004;2023-04-23T00:49:55;10.37;;;9.37;;
3259;SDS011;68938;48.150;14.004;2023-04-23T00:52:23;11.07;;;10.07;;
3259;SDS011;68938;48.150;14.004;2023-04-23T00:54:50;10.70;;;9.70;;
3259;SDS011;68938;48.150;14.004;2023-04-23T00:57:17;11.50;;;9.67;;
3259;SDS011;68938;48.150;14.004;2023-04-23T00:59:44;10.00;;;9.17;;
3259;SDS011;68938;48.150;14.004;2023-04-23T01:02:11;9.47;;;8.63;;
3259;SDS011;68938;48.150;14.004;2023-04-23T01:04:40;10.93;;;9.93;;
3259;SDS011;68938;48.150;14.004;2023-04-23T01:07:12;10.53;;;9.53;;
3259;SDS011;68938;48.150;14.004;2023-04-23T01:09:40;10.37;;;8.97;;
3259;SDS011;68938;48.150;14.004;2023-04-23T01:12:07;9.70;;;8.95;;
3259;SDS011;68938;48.150;14.004;2023-04-23T01:14:36;9.30;;;8.47;;
3259;SDS011;68938;48.150;14.004;2023-04-23T01:17:04;11.70;;;8.53;;
3259;SDS011;68938;48.150;14.004;2023-04-23T01:19:31;10.70;;;9.67;;
3259;SDS011;68938;48.150;14.004;2023-04-23T01:21:59;10.50;;;9.57;;
3259;SDS011;68938;48.150;14.004;2023-04-23T01:24:27;11.47;;;8.63;;
3259;SDS011;68938;48.150;14.004;2023-04-23T01:26:55;9.67;;;8.70;;
3259;SDS011;68938;48.150;14.004;2023-04-23T01:29:22;9.73;;;8.77;;
3259;SDS011;68938;48.150;14.004;2023-04-23T01:31:49;9.87;;;8.97;;
3259;SDS011;68938;48.150;14.004;2023-04-23T01:34:17;10.07;;;8.57;;
3259;SDS011;68938;48.150;14.004;2023-04-23T01:36:45;10.60;;;9.60;;
3259;SDS011;68938;48.150;14.004;2023-04-23T01:39:14;10.63;;;9.70;;
3259;SDS011;68938;48.150;14.004;2023-04-23T01:41:41;9.33;;;8.53;;
3259;SDS011;68938;48.150;14.004;2023-04-23T01:44:08;9.50;;;8.60;;
3259;SDS011;68938;48.150;14.004;2023-04-23T01:46:36;11.60;;;10.50;;
3259;SDS011;68938;48.150;14.004;2023-04-23T01:49:03;12.43;;;9.17;;
3259;SDS011;68938;48.150;14.004;2023-04-23T01:51:30;9.77;;;8.90;;
3259;SDS011;68938;48.150;14.004;2023-04-23T01:53:57;10.10;;;9.10;;
3259;SDS011;68938;48.150;14.004;2023-04-23T01:56:24;9.87;;;8.83;;
3259;SDS011;68938;48.150;14.004;2023-04-23T01:58:54;11.67;;;10.43;;
3259;SDS011;68938;48.150;14.004;2023-04-23T02:01:21;11.20;;;10.20;;
3259;SDS011;68938;48.150;14.004;2023-04-23T02:03:48;11.37;;;10.37;;
3259;SDS011;68938;48.150;14.004;2023-04-23T02:06:16;11.17;;;10.17;;
3259;SDS011;68938;48.150;14.004;2023-04-23T02:08:43;10.33;;;9.30;;
3259;SDS011;68938;48.150;14.004;2023-04-23T02:11:10;10.13;;;9.13;;
3259;SDS011;68938;48.150;14.004;2023-04-23T02:13:37;12.10;;;8.67;;
3259;SDS011;68938;48.150;14.004;2023-04-23T02:16:04;11.57;;;10.57;;
3259;SDS011;68938;48.150;14.004;2023-04-23T02:18:32;10.63;;;9.63;;
3259;SDS011;68938;48.150;14.004;2023-04-23T02:20:58;11.60;;;10.60;;
3259;SDS011;68938;48.150;14.004;2023-04-23T02:23:25;10.53;;;9.00;;
3259;SDS011;68938;48.150;14.004;2023-04-23T02:25:52;9.60;;;8.90;;
3259;SDS011;68938;48.150;14.004;2023-04-23T02:28:19;10.90;;;9.90;;
3259;SDS011;68938;48.150;14.004;2023-04-23T02:30:46;10.97;;;9.87;;
3259;SDS011;68938;48.150;14.004;2023-04-23T02:33:13;10.93;;;10.00;;
3259;SDS011;68938;48.150;14.004;2023-04-23T02:35:40;9.90;;;8.90;;
3259;SDS011;68938;48.150;14.004;2023-04-23T02:38:06;10.10;;;9.20;;
3259;SDS011;68938;48.150;14.004;2023-04-23T02:40:33;9.07;;;8.30;;
3259;SDS011;68938;48.150;14.004;2023-04-23T02:43:00;10.23;;;9.30;;
3259;SDS011;68938;48.150;14.004;2023-04-23T02:45:27;9.83;;;8.50;;
3259;SDS011;68938;48.150;14.004;2023-04-23T02:47:54;9.97;;;8.97;;
3259;SDS011;68938;48.150;14.004;2023-04-23T02:50:21;10.03;;;9.13;;
3259;SDS011;68938;48.150;14.004;2023-04-23T02:52:48;9.50;;;8.70;;
3259;SDS011;68938;48.150;14.004;2023-04-23T02:55:15;9.63;;;8.83;;
3259;SDS011;68938;48.150;14.004;2023-04-23T02:57:42;9.20;;;8.40;;
3259;SDS011;68938;48.150;14.004;2023-04-23T03:00:09;10.87;;;9.83;;
3259;SDS011;68938;48.150;14.004;2023-04-23T03:02:37;9.50;;;8.70;;
3259;SDS011;68938;48.150;14.004;2023-04-23T03:05:04;9.47;;;8.57;;
3259;SDS011;68938;48.150;14.004;2023-04-23T03:07:31;9.43;;;8.57;;
3259;SDS011;68938;48.150;14.004;2023-04-23T03:09:58;10.67;;;9.50;;
3259;SDS011;68938;48.150;14.004;2023-04-23T03:12:25;10.07;;;9.07;;
3259;SDS011;68938;48.150;14.004;2023-04-23T03:14:52;9.40;;;8.63;;
3259;SDS011;68938;48.150;14.004;2023-04-23T03:17:19;11.30;;;10.20;;
3259;SDS011;68938;48.150;14.004;2023-04-23T03:19:45;8.70;;;7.90;;
3259;SDS011;68938;48.150;14.004;2023-04-23T03:22:12;12.93;;;8.93;;
3259;SDS011;68938;48.150;14.004;2023-04-23T03:24:39;9.73;;;8.83;;
3259;SDS011;68938;48.150;14.004;2023-04-23T03:27:07;11.33;;;8.90;;
3259;SDS011;68938;48.150;14.004;2023-04-23T03:29:34;9.13;;;8.37;;
3259;SDS011;68938;48.150;14.004;2023-04-23T03:32:00;9.37;;;8.57;;
3259;SDS011;68938;48.150;14.004;2023-04-23T03:34:27;9.50;;;8.70;;
3259;SDS011;68938;48.150;14.004;2023-04-23T03:36:54;9.97;;;8.77;;
3259;SDS011;68938;48.150;14.004;2023-04-23T03:39:21;9.83;;;8.93;;
3259;SDS011;68938;48.150;14.004;2023-04-23T03:41:48;10.10;;;9.10;;
3259;SDS011;68938;48.150;14.004;2023-04-23T03:44:15;8.00;;;7.40;;
3259;SDS011;68938;48.150;14.004;2023-04-23T03:46:42;10.10;;;9.20;;
3259;SDS011;68938;48.150;14.004;2023-04-23T03:49:09;8.80;;;8.10;;
3259;SDS011;68938;48.150;14.004;2023-04-23T03:51:35;11.60;;;8.23;;
3259;SDS011;68938;48.150;14.004;2023-04-23T03:54:02;10.57;;;9.67;;
3259;SDS011;68938;48.150;14.004;2023-04-23T03:56:29;10.07;;;9.07;;
3259;SDS011;68938;48.150;14.004;2023-04-23T03:58:56;8.97;;;8.17;;
3259;SDS011;68938;48.150;14.004;2023-04-23T04:01:23;9.97;;;9.03;;
3259;SDS011;68938;48.150;14.004;2023-04-23T04:03:50;9.47;;;8.63;;
3259;SDS011;68938;48.150;14.004;2023-04-23T04:06:18;8.30;;;7.70;;
3259;SDS011;68938;48.150;14.004;2023-04-23T04:08:45;9.30;;;8.60;;
3259;SDS011;68938;48.150;14.004;2023-04-23T04:11:12;9.50;;;8.60;;
3259;SDS011;68938;48.150;14.004;2023-04-23T04:13:39;9.57;;;8.67;;
3259;SDS011;68938;48.150;14.004;2023-04-23T04:16:06;8.97;;;8.17;;
3259;SDS011;68938;48.150;14.004;2023-04-23T04:18:33;9.57;;;8.67;;
3259;SDS011;68938;48.150;14.004;2023-04-23T04:21:00;9.57;;;8.67;;
3259;SDS011;68938;48.150;14.004;2023-04-23T04:23:28;8.77;;;7.97;;
3259;SDS011;68938;48.150;14.004;2023-04-23T04:25:54;9.37;;;8.67;;
3259;SDS011;68938;48.150;14.004;2023-04-23T04:28:21;7.77;;;7.13;;
3259;SDS011;68938;48.150;14.004;2023-04-23T04:30:49;9.37;;;8.57;;
3259;SDS011;68938;48.150;14.004;2023-04-23T04:33:18;9.10;;;8.30;;
3259;SDS011;68938;48.150;14.004;2023-04-23T04:35:45;9.93;;;9.13;;
3259;SDS011;68938;48.150;14.004;2023-04-23T04:38:12;9.93;;;9.03;;
3259;SDS011;68938;48.150;14.004;2023-04-23T04:40:39;9.40;;;8.50;;
3259;SDS011;68938;48.150;14.004;2023-04-23T04:43:06;10.63;;;9.70;;
3259;SDS011;68938;48.150;14.004;2023-04-23T04:45:33;10.90;;;10.00;;
3259;SDS011;68938;48.150;14.004;2023-04-23T04:48:00;12.10;;;10.90;;
3259;SDS011;68938;48.150;14.004;2023-04-23T04:50:27;12.20;;;11.00;;
3259;SDS011;68938;48.150;14.004;2023-04-23T04:52:54;10.40;;;9.30;;
3259;SDS011;68938;48.150;14.004;2023-04-23T04:55:20;9.83;;;8.93;;
3259;SDS011;68938;48.150;14.004;2023-04-23T04:57:47;10.17;;;9.37;;
3259;SDS011;68938;48.150;14.004;2023-04-23T05:00:18;11.53;;;9.60;;
3259;SDS011;68938;48.150;14.004;2023-04-23T05:02:51;9.13;;;8.37;;
3259;SDS011;68938;48.150;14.004;2023-04-23T05:05:20;10.27;;;9.30;;
3259;SDS011;68938;48.150;14.004;2023-04-23T05:07:48;12.87;;;10.57;;
3259;SDS011;68938;48.150;14.004;2023-04-23T05:10:16;10.77;;;9.67;;
3259;SDS011;68938;48.150;14.004;2023-04-23T05:12:43;13.33;;;10.00;;
3259;SDS011;68938;48.150;14.004;2023-04-23T05:15:10;13.70;;;12.33;;
3259;SDS011;68938;48.150;14.004;2023-04-23T05:17:39;13.30;;;12.00;;
3259;SDS011;68938;48.150;14.004;2023-04-23T05:20:07;10.83;;;9.80;;
3259;SDS011;68938;48.150;14.004;2023-04-23T05:22:39;12.13;;;10.77;;
3259;SDS011;68938;48.150;14.004;2023-04-23T05:25:08;9.90;;;9.10;;
3259;SDS011;68938;48.150;14.004;2023-04-23T05:27:37;9.43;;;8.63;;
3259;SDS011;68938;48.150;14.004;2023-04-23T05:30:05;10.73;;;9.67;;
3259;SDS011;68938;48.150;14.004;2023-04-23T05:32:35;13.27;;;9.30;;
3259;SDS011;68938;48.150;14.004;2023-04-23T05:35:03;11.23;;;10.13;;
3259;SDS011;68938;48.150;14.004;2023-04-23T05:37:31;10.70;;;9.77;;
3259;SDS011;68938;48.150;14.004;2023-04-23T05:39:58;10.77;;;9.87;;
3259;SDS011;68938;48.150;14.004;2023-04-23T05:42:24;10.67;;;9.77;;
3259;SDS011;68938;48.150;14.004;2023-04-23T05:44:51;10.40;;;9.27;;
3259;SDS011;68938;48.150;14.004;2023-04-23T05:47:18;10.33;;;9.43;;
3259;SDS011;68938;48.150;14.004;2023-04-23T05:49:45;11.63;;;10.23;;
3259;SDS011;68938;48.150;14.004;2023-04-23T05:52:12;10.00;;;9.00;;
3259;SDS011;68938;48.150;14.004;2023-04-23T05:54:40;9.23;;;8.53;;
3259;SDS011;68938;48.150;14.004;2023-04-23T05:57:08;8.97;;;8.20;;
3259;SDS011;68938;48.150;14.004;2023-04-23T05:59:35;8.95;;;8.25;;
3259;SDS011;68938;48.150;14.004;2023-04-23T06:02:02;10.83;;;9.83;;
3259;SDS011;68938;48.150;14.004;2023-04-23T06:04:29;9.97;;;9.07;;
3259;SDS011;68938;48.150;14.004;2023-04-23T06:06:57;9.43;;;8.67;;
3259;SDS011;68938;48.150;14.004;2023-04-23T06:09:24;9.60;;;8.80;;
3259;SDS011;68938;48.150;14.004;2023-04-23T06:11:51;9.50;;;8.40;;
3259;SDS011;68938;48.150;14.004;2023-04-23T06:14:19;8.77;;;7.97;;
3259;SDS011;68938;48.150;14.004;2023-04-23T06:16:46;9.33;;;8.53;;
3259;SDS011;68938;48.150;14.004;2023-04-23T06:19:13;11.07;;;10.07;;
3259;SDS011;68938;48.150;14.004;2023-04-23T06:21:40;11.00;;;10.10;;
3259;SDS011;68938;48.150;14.004;2023-04-23T06:24:07;11.17;;;10.33;;
3259;SDS011;68938;48.150;14.004;2023-04-23T06:26:34;11.50;;;10.40;;
3259;SDS011;68938;48.150;14.004;2023-04-23T06:29:00;11.27;;;10.30;;
3259;SDS011;68938;48.150;14.004;2023-04-23T06:31:27;13.50;;;10.47;;
3259;SDS011;68938;48.150;14.004;2023-04-23T06:33:54;10.30;;;9.30;;
3259;SDS011;68938;48.150;14.004;2023-04-23T06:36:21;9.73;;;8.73;;
3259;SDS011;68938;48.150;14.004;2023-04-23T06:38:48;11.97;;;10.97;;
3259;SDS011;68938;48.150;14.004;2023-04-23T06:41:15;11.07;;;9.97;;
3259;SDS011;68938;48.150;14.004;2023-04-23T06:43:42;11.23;;;10.23;;
3259;SDS011;68938;48.150;14.004;2023-04-23T06:46:09;11.03;;;10.00;;
3259;SDS011;68938;48.150;14.004;2023-04-23T06:48:35;12.70;;;9.07;;
3259;SDS011;68938;48.150;14.004;2023-04-23T06:51:02;10.80;;;9.90;;
3259;SDS011;68938;48.150;14.004;2023-04-23T06:53:29;10.73;;;9.63;;
3259;SDS011;68938;48.150;14.004;2023-04-23T06:55:57;10.00;;;9.10;;
3259;SDS011;68938;48.150;14.004;2023-04-23T06:58:23;11.23;;;10.23;;
3259;SDS011;68938;48.150;14.004;2023-04-23T07:00:50;10.20;;;9.10;;
3259;SDS011;68938;48.150;14.004;2023-04-23T07:03:17;11.60;;;10.23;;
3259;SDS011;68938;48.150;14.004;2023-04-23T07:05:45;10.43;;;9.50;;
3259;SDS011;68938;48.150;14.004;2023-04-23T07:08:12;12.10;;;11.20;;
3259;SDS011;68938;48.150;14.004;2023-04-23T07:10:39;9.33;;;8.50;;
3259;SDS011;68938;48.150;14.004;2023-04-23T07:13:06;10.13;;;8.73;;
3259;SDS011;68938;48.150;14.004;2023-04-23T07:15:32;9.27;;;8.37;;
3259;SDS011;68938;48.150;14.004;2023-04-23T07:17:59;9.00;;;8.30;;
3259;SDS011;68938;48.150;14.004;2023-04-23T07:20:26;9.53;;;8.83;;
3259;SDS011;68938;48.150;14.004;2023-04-23T07:22:53;11.30;;;9.00;;
3259;SDS011;68938;48.150;14.004;2023-04-23T07:25:20;8.73;;;8.10;;
3259;SDS011;68938;48.150;14.004;2023-04-23T07:27:47;9.07;;;8.27;;
3259;SDS011;68938;48.150;14.004;2023-04-23T07:30:14;8.70;;;7.90;;
3259;SDS011;68938;48.150;14.004;2023-04-23T07:32:41;9.07;;;8.37;;
3259;SDS011;68938;48.150;14.004;2023-04-23T07:35:08;8.93;;;8.23;;
3259;SDS011;68938;48.150;14.004;2023-04-23T07:37:36;9.83;;;8.93;;
3259;SDS011;68938;48.150;14.004;2023-04-23T07:40:03;7.70;;;7.10;;
3259;SDS011;68938;48.150;14.004;2023-04-23T07:42:31;7.50;;;7.00;;
3259;SDS011;68938;48.150;14.004;2023-04-23T07:44:58;7.30;;;6.60;;
3259;SDS011;68938;48.150;14.004;2023-04-23T07:47:25;8.57;;;7.87;;
3259;SDS011;68938;48.150;14.004;2023-04-23T07:49:52;7.90;;;7.30;;
3259;SDS011;68938;48.150;14.004;2023-04-23T07:52:19;7.87;;;7.27;;
3259;SDS011;68938;48.150;14.004;2023-04-23T07:54:46;7.50;;;6.80;;
3259;SDS011;68938;48.150;14.004;2023-04-23T07:57:13;8.07;;;7.43;;
3259;SDS011;68938;48.150;14.004;2023-04-23T07:59:40;8.33;;;6.87;;
3259;SDS011;68938;48.150;14.004;2023-04-23T08:02:07;8.00;;;7.40;;
3259;SDS011;68938;48.150;14.004;2023-04-23T08:04:34;7.87;;;7.17;;
3259;SDS011;68938;48.150;14.004;2023-04-23T08:07:02;7.80;;;7.20;;
3259;SDS011;68938;48.150;14.004;2023-04-23T08:09:28;7.40;;;6.90;;
3259;SDS011;68938;48.150;14.004;2023-04-23T08:11:55;6.53;;;6.00;;
3259;SDS011;68938;48.150;14.004;2023-04-23T08:14:22;7.30;;;6.73;;
3259;SDS011;68938;48.150;14.004;2023-04-23T08:16:49;7.40;;;6.83;;
3259;SDS011;68938;48.150;14.004;2023-04-23T08:19:16;6.93;;;6.23;;
3259;SDS011;68938;48.150;14.004;2023-04-23T08:21:43;7.40;;;6.70;;
3259;SDS011;68938;48.150;14.004;2023-04-23T08:24:10;6.80;;;6.30;;
3259;SDS011;68938;48.150;14.004;2023-04-23T08:26:37;6.97;;;6.47;;
3259;SDS011;68938;48.150;14.004;2023-04-23T08:29:04;8.20;;;7.50;;
3259;SDS011;68938;48.150;14.004;2023-04-23T08:31:31;7.37;;;6.77;;
3259;SDS011;68938;48.150;14.004;2023-04-23T08:33:58;7.90;;;7.20;;
3259;SDS011;68938;48.150;14.004;2023-04-23T08:36:25;6.63;;;6.17;;
3259;SDS011;68938;48.150;14.004;2023-04-23T08:38:52;7.13;;;6.53;;
3259;SDS011;68938;48.150;14.004;2023-04-23T08:41:20;7.13;;;6.60;;
3259;SDS011;68938;48.150;14.004;2023-04-23T08:43:50;6.47;;;6.07;;
3259;SDS011;68938;48.150;14.004;2023-04-23T08:46:41;6.97;;;6.37;;
3259;SDS011;68938;48.150;14.004;2023-04-23T08:49:12;6.43;;;5.90;;
3259;SDS011;68938;48.150;14.004;2023-04-23T08:51:52;6.27;;;5.77;;
3259;SDS011;68938;48.150;14.004;2023-04-23T08:54:21;6.57;;;6.07;;
3259;SDS011;68938;48.150;14.004;2023-04-23T08:56:55;6.40;;;6.00;;
3259;SDS011;68938;48.150;14.004;2023-04-23T08:59:26;7.10;;;5.93;;
3259;SDS011;68938;48.150;14.004;2023-04-23T09:01:56;6.43;;;6.03;;
3259;SDS011;68938;48.150;14.004;2023-04-23T09:04:23;6.37;;;5.77;;
3259;SDS011;68938;48.150;14.004;2023-04-23T09:06:51;6.00;;;5.50;;
3259;SDS011;68938;48.150;14.004;2023-04-23T09:09:18;6.00;;;5.53;;
3259;SDS011;68938;48.150;14.004;2023-04-23T09:11:46;5.83;;;5.40;;
3259;SDS011;68938;48.150;14.004;2023-04-23T09:14:13;6.47;;;5.87;;
3259;SDS011;68938;48.150;14.004;2023-04-23T09:16:40;5.93;;;5.43;;
3259;SDS011;68938;48.150;14.004;2023-04-23T09:19:08;6.20;;;5.80;;
3259;SDS011;68938;48.150;14.004;2023-04-23T09:21:37;7.10;;;6.60;;
3259;SDS011;68938;48.150;14.004;2023-04-23T09:24:05;6.30;;;5.90;;
3259;SDS011;68938;48.150;14.004;2023-04-23T09:26:34;6.00;;;5.50;;
3259;SDS011;68938;48.150;14.004;2023-04-23T09:29:17;7.20;;;6.70;;
3259;SDS011;68938;48.150;14.004;2023-04-23T09:31:47;6.43;;;6.03;;
3259;SDS011;68938;48.150;14.004;2023-04-23T09:34:17;6.33;;;5.87;;
3259;SDS011;68938;48.150;14.004;2023-04-23T09:36:46;14.73;;;12.50;;
3259;SDS011;68938;48.150;14.004;2023-04-23T09:39:17;10.03;;;6.27;;
3259;SDS011;68938;48.150;14.004;2023-04-23T09:41:47;6.00;;;5.60;;
3259;SDS011;68938;48.150;14.004;2023-04-23T09:44:18;7.30;;;6.80;;
3259;SDS011;68938;48.150;14.004;2023-04-23T09:46:47;6.30;;;5.90;;
3259;SDS011;68938;48.150;14.004;2023-04-23T09:49:14;6.53;;;5.90;;
3259;SDS011;68938;48.150;14.004;2023-04-23T09:51:42;12.33;;;11.23;;
3259;SDS011;68938;48.150;14.004;2023-04-23T09:56:51;9.23;;;8.10;;
3259;SDS011;68938;48.150;14.004;2023-04-23T10:02:02;5.90;;;5.40;;
3259;SDS011;68938;48.150;14.004;2023-04-23T10:04:32;7.27;;;6.67;;
3259;SDS011;68938;48.150;14.004;2023-04-23T10:07:01;6.53;;;6.13;;
3259;SDS011;68938;48.150;14.004;2023-04-23T10:09:45;6.47;;;6.07;;
3259;SDS011;68938;48.150;14.004;2023-04-23T10:12:13;6.80;;;6.30;;
3259;SDS011;68938;48.150;14.004;2023-04-23T10:14:44;6.67;;;6.27;;
3259;SDS011;68938;48.150;14.004;2023-04-23T10:17:12;7.30;;;6.70;;
3259;SDS011;68938;48.150;14.004;2023-04-23T10:19:39;7.00;;;6.50;;
3259;SDS011;68938;48.150;14.004;2023-04-23T10:22:09;7.17;;;6.73;;
3259;SDS011;68938;48.150;14.004;2023-04-23T10:24:41;8.40;;;7.70;;
3259;SDS011;68938;48.150;14.004;2023-04-23T10:27:14;9.23;;;8.30;;
3259;SDS011;68938;48.150;14.004;2023-04-23T10:30:02;9.97;;;9.00;;
3259;SDS011;68938;48.150;14.004;2023-04-23T10:32:32;8.40;;;7.80;;
3259;SDS011;68938;48.150;14.004;2023-04-23T10:34:59;8.50;;;7.63;;
3259;SDS011;68938;48.150;14.004;2023-04-23T10:37:26;8.43;;;7.83;;
3259;SDS011;68938;48.150;14.004;2023-04-23T10:39:55;8.70;;;8.00;;
3259;SDS011;68938;48.150;14.004;2023-04-23T10:42:40;8.63;;;7.93;;
3259;SDS011;68938;48.150;14.004;2023-04-23T10:47:47;7.57;;;7.03;;
3259;SDS011;68938;48.150;14.004;2023-04-23T10:52:44;6.83;;;5.90;;
3259;SDS011;68938;48.150;14.004;2023-04-23T10:55:15;7.17;;;6.50;;
3259;SDS011;68938;48.150;14.004;2023-04-23T11:06:13;5.90;;;5.40;;
3259;SDS011;68938;48.150;14.004;2023-04-23T11:09:29;5.73;;;5.33;;
3259;SDS011;68938;48.150;14.004;2023-04-23T11:12:00;5.53;;;5.13;;
3259;SDS011;68938;48.150;14.004;2023-04-23T11:14:47;5.97;;;5.57;;
3259;SDS011;68938;48.150;14.004;2023-04-23T11:17:17;6.30;;;5.80;;
3259;SDS011;68938;48.150;14.004;2023-04-23T11:20:10;5.83;;;5.30;;
3259;SDS011;68938;48.150;14.004;2023-04-23T11:22:45;7.30;;;5.17;;
3259;SDS011;68938;48.150;14.004;2023-04-23T11:25:24;6.73;;;6.23;;
3259;SDS011;68938;48.150;14.004;2023-04-23T11:27:54;5.20;;;4.80;;
3259;SDS011;68938;48.150;14.004;2023-04-23T11:30:23;4.77;;;4.47;;
3259;SDS011;68938;48.150;14.004;2023-04-23T11:32:55;5.57;;;5.07;;
3259;SDS011;68938;48.150;14.004;2023-04-23T11:35:24;6.67;;;4.73;;
3259;SDS011;68938;48.150;14.004;2023-04-23T11:37:52;4.73;;;4.33;;
3259;SDS011;68938;48.150;14.004;2023-04-23T11:40:20;4.40;;;4.10;;
3259;SDS011;68938;48.150;14.004;2023-04-23T11:42:49;4.80;;;4.50;;
3259;SDS011;68938;48.150;14.004;2023-04-23T11:45:21;4.93;;;4.43;;
3259;SDS011;68938;48.150;14.004;2023-04-23T11:47:52;4.60;;;4.30;;
3259;SDS011;68938;48.150;14.004;2023-04-23T11:50:25;4.70;;;4.40;;
3259;SDS011;68938;48.150;14.004;2023-04-23T11:53:04;4.53;;;4.20;;
3259;SDS011;68938;48.150;14.004;2023-04-23T11:55:33;5.50;;;4.50;;
3259;SDS011;68938;48.150;14.004;2023-04-23T11:58:00;5.73;;;5.03;;
3259;SDS011;68938;48.150;14.004;2023-04-23T12:00:28;4.77;;;4.47;;
3259;SDS011;68938;48.150;14.004;2023-04-23T12:05:34;5.70;;;5.17;;
3259;SDS011;68938;48.150;14.004;2023-04-23T12:10:53;5.93;;;5.17;;
3259;SDS011;68938;48.150;14.004;2023-04-23T12:13:26;5.50;;;5.10;;
3259;SDS011;68938;48.150;14.004;2023-04-23T12:15:56;4.97;;;4.67;;
3259;SDS011;68938;48.150;14.004;2023-04-23T12:18:31;5.03;;;4.73;;
3259;SDS011;68938;48.150;14.004;2023-04-23T12:21:12;4.73;;;4.43;;
3259;SDS011;68938;48.150;14.004;2023-04-23T12:23:41;6.50;;;5.90;;
3259;SDS011;68938;48.150;14.004;2023-04-23T12:26:14;4.67;;;4.23;;
3259;SDS011;68938;48.150;14.004;2023-04-23T12:29:00;4.50;;;4.10;;
3259;SDS011;68938;48.150;14.004;2023-04-23T12:31:27;5.10;;;4.80;;
3259;SDS011;68938;48.150;14.004;2023-04-23T12:33:56;4.97;;;4.67;;
3259;SDS011;68938;48.150;14.004;2023-04-23T12:36:27;4.93;;;4.60;;
3259;SDS011;68938;48.150;14.004;2023-04-23T12:39:15;5.30;;;4.83;;
3259;SDS011;68938;48.150;14.004;2023-04-23T12:42:04;5.43;;;5.03;;
3259;SDS011;68938;48.150;14.004;2023-04-23T12:44:33;5.60;;;4.93;;
3259;SDS011;68938;48.150;14.004;2023-04-23T12:47:07;4.40;;;4.10;;
3259;SDS011;68938;48.150;14.004;2023-04-23T12:49:37;5.13;;;4.50;;
3259;SDS011;68938;48.150;14.004;2023-04-23T12:52:06;4.67;;;4.37;;
3259;SDS011;68938;48.150;14.004;2023-04-23T12:54:38;5.40;;;4.70;;
3259;SDS011;68938;48.150;14.004;2023-04-23T12:57:07;5.13;;;4.33;;
3259;SDS011;68938;48.150;14.004;2023-04-23T12:59:37;4.23;;;3.93;;
3259;SDS011;68938;48.150;14.004;2023-04-23T13:02:04;4.93;;;4.30;;
3259;SDS011;68938;48.150;14.004;2023-04-23T13:04:32;4.17;;;3.97;;
3259;SDS011;68938;48.150;14.004;2023-04-23T13:07:01;5.20;;;4.80;;
3259;SDS011;68938;48.150;14.004;2023-04-23T13:09:29;3.83;;;3.60;;
3259;SDS011;68938;48.150;14.004;2023-04-23T13:11:56;4.67;;;4.37;;
3259;SDS011;68938;48.150;14.004;2023-04-23T13:14:23;4.93;;;4.63;;
3259;SDS011;68938;48.150;14.004;2023-04-23T13:16:50;4.57;;;4.17;;
3259;SDS011;68938;48.150;14.004;2023-04-23T13:19:17;5.00;;;4.50;;
3259;SDS011;68938;48.150;14.004;2023-04-23T13:21:44;5.13;;;4.80;;
3259;SDS011;68938;48.150;14.004;2023-04-23T13:24:11;4.20;;;3.90;;
3259;SDS011;68938;48.150;14.004;2023-04-23T13:26:38;4.30;;;3.90;;
3259;SDS011;68938;48.150;14.004;2023-04-23T13:29:05;4.63;;;3.80;;
3259;SDS011;68938;48.150;14.004;2023-04-23T13:31:32;3.80;;;3.40;;
3259;SDS011;68938;48.150;14.004;2023-04-23T13:33:59;4.00;;;3.70;;
3259;SDS011;68938;48.150;14.004;2023-04-23T13:36:26;4.03;;;3.73;;
3259;SDS011;68938;48.150;14.004;2023-04-23T13:38:53;4.00;;;3.70;;
3259;SDS011;68938;48.150;14.004;2023-04-23T13:41:20;3.83;;;3.53;;
3259;SDS011;68938;48.150;14.004;2023-04-23T13:43:47;4.73;;;4.43;;
3259;SDS011;68938;48.150;14.004;2023-04-23T13:46:14;3.70;;;3.50;;
3259;SDS011;68938;48.150;14.004;2023-04-23T13:48:41;3.57;;;3.37;;
3259;SDS011;68938;48.150;14.004;2023-04-23T13:51:08;5.53;;;4.37;;
3259;SDS011;68938;48.150;14.004;2023-04-23T13:53:55;5.43;;;4.40;;
3259;SDS011;68938;48.150;14.004;2023-04-23T13:56:22;4.80;;;4.30;;
3259;SDS011;68938;48.150;14.004;2023-04-23T13:58:49;8.67;;;4.30;;
3259;SDS011;68938;48.150;14.004;2023-04-23T14:01:16;3.83;;;3.63;;
3259;SDS011;68938;48.150;14.004;2023-04-23T14:03:44;9.27;;;4.10;;
3259;SDS011;68938;48.150;14.004;2023-04-23T14:06:11;4.00;;;3.80;;
3259;SDS011;68938;48.150;14.004;2023-04-23T14:08:38;4.23;;;3.90;;
3259;SDS011;68938;48.150;14.004;2023-04-23T14:11:05;3.73;;;3.33;;
3259;SDS011;68938;48.150;14.004;2023-04-23T14:13:32;4.03;;;3.73;;
3259;SDS011;68938;48.150;14.004;2023-04-23T14:15:59;4.53;;;4.20;;
3259;SDS011;68938;48.150;14.004;2023-04-23T14:18:29;3.80;;;3.60;;
3259;SDS011;68938;48.150;14.004;2023-04-23T14:20:56;3.90;;;3.60;;
3259;SDS011;68938;48.150;14.004;2023-04-23T14:25:57;3.83;;;3.53;;
3259;SDS011;68938;48.150;14.004;2023-04-23T14:28:33;4.07;;;3.67;;
3259;SDS011;68938;48.150;14.004;2023-04-23T14:31:12;4.00;;;3.70;;
3259;SDS011;68938;48.150;14.004;2023-04-23T14:33:39;4.10;;;3.73;;
3259;SDS011;68938;48.150;14.004;2023-04-23T14:36:06;3.93;;;3.73;;
3259;SDS011;68938;48.150;14.004;2023-04-23T14:38:33;4.17;;;3.87;;
3259;SDS011;68938;48.150;14.004;2023-04-23T14:40:59;5.70;;;4.43;;
3259;SDS011;68938;48.150;14.004;2023-04-23T14:43:26;3.83;;;3.63;;
3259;SDS011;68938;48.150;14.004;2023-04-23T14:45:53;4.20;;;3.90;;
3259;SDS011;68938;48.150;14.004;2023-04-23T14:48:20;6.63;;;4.60;;
3259;SDS011;68938;48.150;14.004;2023-04-23T14:50:47;4.83;;;4.43;;
3259;SDS011;68938;48.150;14.004;2023-04-23T14:53:14;3.57;;;3.37;;
3259;SDS011;68938;48.150;14.004;2023-04-23T14:55:41;3.63;;;3.50;;
3259;SDS011;68938;48.150;14.004;2023-04-23T14:58:08;5.17;;;4.03;;
3259;SDS011;68938;48.150;14.004;2023-04-23T15:00:34;4.57;;;3.67;;
3259;SDS011;68938;48.150;14.004;2023-04-23T15:03:01;5.03;;;4.07;;
3259;SDS011;68938;48.150;14.004;2023-04-23T15:05:29;4.30;;;4.00;;
3259;SDS011;68938;48.150;14.004;2023-04-23T15:07:56;3.90;;;3.70;;
3259;SDS011;68938;48.150;14.004;2023-04-23T15:10:23;3.80;;;3.50;;
3259;SDS011;68938;48.150;14.004;2023-04-23T15:15:21;4.23;;;3.87;;
3259;SDS011;68938;48.150;14.004;2023-04-23T15:18:08;4.70;;;4.30;;
3259;SDS011;68938;48.150;14.004;2023-04-23T15:20:37;4.50;;;4.20;;